createdAt,value
2018-12-18T00:00:27.631Z,52.63
2018-12-18T00:01:27.614Z,52.54
2018-12-18T00:02:27.603Z,52.63
2018-12-18T00:03:27.595Z,52.54
2018-12-18T00:04:27.702Z,52.73
2018-12-18T00:05:27.884Z,52.54
2018-12-18T00:06:27.568Z,52.44
2018-12-18T00:07:27.558Z,52.54
2018-12-18T00:08:27.542Z,52.34
2018-12-18T00:09:27.532Z,52.54
2018-12-18T00:10:27.522Z,52.63
2018-12-18T00:11:27.510Z,52.44
2018-12-18T00:12:27.499Z,52.34
2018-12-18T00:13:27.490Z,52.63
2018-12-18T00:14:27.479Z,52.54
2018-12-18T00:15:27.476Z,52.63
2018-12-18T00:16:27.461Z,52.54
2018-12-18T00:17:27.453Z,52.44
2018-12-18T00:18:27.445Z,52.44
2018-12-18T00:19:28.385Z,52.63
2018-12-18T00:20:27.423Z,52.54
2018-12-18T00:21:27.411Z,52.44
2018-12-18T00:22:27.399Z,52.44
2018-12-18T00:23:27.386Z,52.44
2018-12-18T00:24:27.372Z,52.54
2018-12-18T00:25:27.378Z,52.63
2018-12-18T00:26:27.365Z,52.34
2018-12-18T00:27:27.345Z,52.44
2018-12-18T00:28:27.337Z,52.34
2018-12-18T00:29:27.323Z,52.44
2018-12-18T00:30:27.312Z,52.34
2018-12-18T00:31:27.301Z,52.25
2018-12-18T00:32:27.293Z,52.54
2018-12-18T00:33:27.276Z,52.44
2018-12-18T00:34:27.275Z,52.34
2018-12-18T00:35:27.265Z,52.44
2018-12-18T00:36:27.250Z,52.63
2018-12-18T00:37:27.242Z,52.63
2018-12-18T00:38:27.229Z,52.54
2018-12-18T00:39:27.220Z,52.83
2018-12-18T00:40:27.211Z,52.44
2018-12-18T00:41:27.202Z,52.63
2018-12-18T00:42:27.181Z,52.54
2018-12-18T00:43:27.178Z,52.44
2018-12-18T00:44:27.172Z,52.63
2018-12-18T00:45:27.156Z,52.73
2018-12-18T00:46:27.147Z,52.63
2018-12-18T00:47:27.137Z,52.63
2018-12-18T00:48:27.126Z,52.63
2018-12-18T00:49:27.119Z,52.73
2018-12-18T00:50:27.108Z,52.44
2018-12-18T00:51:27.095Z,52.54
2018-12-18T00:52:27.079Z,52.54
2018-12-18T00:53:27.084Z,52.54
2018-12-18T00:54:27.075Z,52.54
2018-12-18T00:55:27.060Z,52.34
2018-12-18T00:56:27.044Z,52.34
2018-12-18T00:57:27.032Z,52.34
2018-12-18T00:58:27.027Z,52.34
2018-12-18T00:59:27.014Z,52.44
2018-12-18T01:00:27.018Z,52.34
2018-12-18T01:01:26.993Z,52.34
2018-12-18T01:02:26.982Z,52.34
2018-12-18T01:03:26.976Z,52.34
2018-12-18T01:04:26.971Z,52.34
2018-12-18T01:05:26.953Z,52.15
2018-12-18T01:06:26.948Z,52.25
2018-12-18T01:07:26.936Z,52.34
2018-12-18T01:08:26.920Z,52.34
2018-12-18T01:09:26.909Z,52.15
2018-12-18T01:10:26.899Z,51.86
2018-12-18T01:11:26.886Z,51.86
2018-12-18T01:12:26.887Z,52.25
2018-12-18T01:13:26.868Z,52.15
2018-12-18T01:14:26.857Z,52.06
2018-12-18T01:15:26.848Z,51.86
2018-12-18T01:16:26.835Z,52.15
2018-12-18T01:17:26.827Z,51.86
2018-12-18T01:18:26.821Z,52.34
2018-12-18T01:19:26.810Z,52.34
2018-12-18T01:20:26.800Z,52.06
2018-12-18T01:21:26.789Z,52.15
2018-12-18T01:22:26.778Z,52.25
2018-12-18T01:23:26.774Z,52.15
2018-12-18T01:24:26.763Z,52.34
2018-12-18T01:25:26.743Z,51.96
2018-12-18T01:26:26.738Z,52.15
2018-12-18T01:27:26.759Z,52.06
2018-12-18T01:28:26.711Z,51.96
2018-12-18T01:29:26.702Z,52.15
2018-12-18T01:30:26.707Z,52.15
2018-12-18T01:31:26.680Z,51.96
2018-12-18T01:32:26.676Z,52.15
2018-12-18T01:33:26.659Z,51.86
2018-12-18T01:34:26.653Z,52.25
2018-12-18T01:35:26.641Z,52.15
2018-12-18T01:36:26.630Z,52.25
2018-12-18T01:37:26.622Z,52.15
2018-12-18T01:38:26.607Z,52.06
2018-12-18T01:39:26.601Z,52.15
2018-12-18T01:40:26.588Z,52.06
2018-12-18T01:41:26.580Z,52.06
2018-12-18T01:42:26.569Z,52.34
2018-12-18T01:43:26.554Z,52.34
2018-12-18T01:44:26.543Z,52.15
2018-12-18T01:45:26.540Z,52.25
2018-12-18T01:46:26.532Z,52.15
2018-12-18T01:47:26.521Z,52.06
2018-12-18T01:48:26.506Z,52.06
2018-12-18T01:49:26.497Z,52.44
2018-12-18T01:50:26.485Z,52.25
2018-12-18T01:51:26.482Z,52.06
2018-12-18T01:52:26.465Z,52.54
2018-12-18T01:53:26.451Z,52.15
2018-12-18T01:54:26.442Z,52.25
2018-12-18T01:55:26.432Z,52.15
2018-12-18T01:56:26.421Z,52.44
2018-12-18T01:57:26.412Z,52.06
2018-12-18T01:58:26.404Z,52.25
2018-12-18T01:59:26.388Z,52.06
2018-12-18T02:00:26.382Z,52.34
2018-12-18T02:01:26.372Z,52.34
2018-12-18T02:02:26.368Z,52.25
2018-12-18T02:03:26.348Z,52.34
2018-12-18T02:04:26.339Z,52.25
2018-12-18T02:05:26.328Z,52.25
2018-12-18T02:06:26.325Z,52.25
2018-12-18T02:07:26.312Z,52.06
2018-12-18T02:08:26.304Z,52.34
2018-12-18T02:09:26.293Z,52.34
2018-12-18T02:10:26.281Z,52.25
2018-12-18T02:11:26.264Z,52.34
2018-12-18T02:12:26.255Z,52.34
2018-12-18T02:13:26.243Z,51.96
2018-12-18T02:14:26.233Z,52.25
2018-12-18T02:15:26.226Z,52.25
2018-12-18T02:16:26.214Z,52.15
2018-12-18T02:17:26.199Z,52.34
2018-12-18T02:18:26.193Z,51.96
2018-12-18T02:19:26.187Z,52.34
2018-12-18T02:20:26.172Z,52.15
2018-12-18T02:21:26.162Z,51.96
2018-12-18T02:22:26.150Z,52.34
2018-12-18T02:23:26.146Z,52.44
2018-12-18T02:24:26.134Z,52.15
2018-12-18T02:25:26.123Z,52.44
2018-12-18T02:26:26.112Z,52.06
2018-12-18T02:27:26.099Z,52.44
2018-12-18T02:28:26.097Z,52.15
2018-12-18T02:29:26.078Z,52.44
2018-12-18T02:30:26.070Z,51.96
2018-12-18T02:31:26.057Z,51.96
2018-12-18T02:32:26.057Z,52.44
2018-12-18T02:33:26.037Z,52.44
2018-12-18T02:34:26.027Z,52.44
2018-12-18T02:35:26.018Z,51.86
2018-12-18T02:36:26.021Z,51.96
2018-12-18T02:37:26.010Z,51.96
2018-12-18T02:38:26.000Z,52.15
2018-12-18T02:39:25.976Z,52.15
2018-12-18T02:40:25.973Z,51.76
2018-12-18T02:41:25.955Z,51.86
2018-12-18T02:42:25.972Z,51.76
2018-12-18T02:43:25.942Z,51.76
2018-12-18T02:44:25.928Z,51.96
2018-12-18T02:45:25.916Z,52.06
2018-12-18T02:46:25.902Z,52.06
2018-12-18T02:47:25.896Z,52.06
2018-12-18T02:48:25.899Z,51.76
2018-12-18T02:49:25.871Z,52.15
2018-12-18T02:50:25.863Z,52.15
2018-12-18T02:51:25.852Z,52.34
2018-12-18T02:52:25.838Z,52.15
2018-12-18T02:53:25.833Z,52.06
2018-12-18T02:54:25.818Z,51.76
2018-12-18T02:55:25.809Z,51.96
2018-12-18T02:56:25.798Z,52.34
2018-12-18T02:57:25.931Z,51.96
2018-12-18T02:58:26.803Z,51.96
2018-12-18T02:59:25.977Z,52.44
2018-12-18T03:00:25.863Z,52.34
2018-12-18T03:01:25.954Z,52.44
2018-12-18T03:02:25.988Z,52.44
2018-12-18T03:03:26.276Z,52.06
2018-12-18T03:04:26.498Z,52.44
2018-12-18T03:05:26.108Z,52.44
2018-12-18T03:06:26.021Z,52.44
2018-12-18T03:07:25.976Z,51.96
2018-12-18T03:08:26.053Z,51.86
2018-12-18T03:09:26.195Z,52.44
2018-12-18T03:10:26.225Z,52.44
2018-12-18T03:11:26.127Z,52.15
2018-12-18T03:12:26.743Z,52.34
2018-12-18T03:13:25.838Z,52.06
2018-12-18T03:14:25.936Z,52.44
2018-12-18T03:15:26.155Z,52.44
2018-12-18T03:16:25.744Z,51.76
2018-12-18T03:17:25.778Z,52.44
2018-12-18T03:18:25.879Z,52.34
2018-12-18T03:19:25.791Z,51.96
2018-12-18T03:20:25.977Z,51.96
2018-12-18T03:21:26.150Z,51.86
2018-12-18T03:22:25.912Z,51.96
2018-12-18T03:23:26.491Z,51.76
2018-12-18T03:24:25.609Z,52.15
2018-12-18T03:25:25.675Z,52.06
2018-12-18T03:26:25.922Z,52.15
2018-12-18T03:27:25.927Z,51.96
2018-12-18T03:28:25.990Z,52.06
2018-12-18T03:29:25.783Z,51.96
2018-12-18T03:30:25.783Z,51.96
2018-12-18T03:31:25.827Z,52.06
2018-12-18T03:32:25.739Z,51.96
2018-12-18T03:33:25.852Z,51.96
2018-12-18T03:34:28.420Z,52.06
2018-12-18T03:35:25.902Z,51.96
2018-12-18T03:36:26.348Z,52.06
2018-12-18T03:37:25.825Z,52.15
2018-12-18T03:38:25.812Z,52.06
2018-12-18T03:39:25.676Z,51.96
2018-12-18T03:40:25.893Z,51.96
2018-12-18T03:41:25.589Z,52.06
2018-12-18T03:42:25.671Z,52.15
2018-12-18T03:43:25.784Z,51.86
2018-12-18T03:44:25.911Z,51.96
2018-12-18T03:45:25.839Z,52.06
2018-12-18T03:46:25.581Z,52.15
2018-12-18T03:47:25.346Z,52.15
2018-12-18T03:48:25.795Z,52.06
2018-12-18T03:49:25.720Z,51.86
2018-12-18T03:50:25.800Z,52.06
2018-12-18T03:51:25.677Z,52.15
2018-12-18T03:52:25.806Z,52.06
2018-12-18T03:53:25.781Z,52.06
2018-12-18T03:54:25.984Z,52.06
2018-12-18T03:55:25.424Z,52.06
2018-12-18T03:56:25.294Z,52.34
2018-12-18T03:57:26.286Z,52.06
2018-12-18T03:58:25.404Z,52.25
2018-12-18T03:59:25.466Z,52.44
2018-12-18T04:00:25.338Z,52.34
2018-12-18T04:01:25.275Z,52.25
2018-12-18T04:02:25.382Z,52.25
2018-12-18T04:03:25.319Z,52.25
2018-12-18T04:04:25.337Z,52.15
2018-12-18T04:05:25.378Z,52.15
2018-12-18T04:06:25.283Z,52.15
2018-12-18T04:07:25.354Z,52.15
2018-12-18T04:08:25.395Z,51.96
2018-12-18T04:09:25.317Z,51.96
2018-12-18T04:10:25.387Z,51.96
2018-12-18T04:11:25.413Z,51.86
2018-12-18T04:12:25.729Z,51.96
2018-12-18T04:13:25.419Z,51.86
2018-12-18T04:14:25.148Z,51.86
2018-12-18T04:15:25.856Z,51.86
2018-12-18T04:16:25.119Z,51.96
2018-12-18T04:17:25.559Z,51.86
2018-12-18T04:18:25.526Z,51.96
2018-12-18T04:19:25.946Z,51.96
2018-12-18T04:20:25.182Z,51.96
2018-12-18T04:21:25.144Z,51.96
2018-12-18T04:22:25.239Z,51.76
2018-12-18T04:23:25.240Z,52.06
2018-12-18T04:24:26.208Z,52.06
2018-12-18T04:25:25.107Z,52.27
2018-12-18T04:26:25.297Z,52.15
2018-12-18T04:27:25.073Z,52.06
2018-12-18T04:28:25.054Z,52.06
2018-12-18T04:29:24.968Z,51.41
2018-12-18T04:30:25.041Z,52.15
2018-12-18T04:31:25.291Z,52.06
2018-12-18T04:32:25.012Z,51.29
2018-12-18T04:33:25.234Z,51.29
2018-12-18T04:34:25.585Z,51.19
2018-12-18T04:35:24.900Z,51.57
2018-12-18T04:36:25.167Z,52.06
2018-12-18T04:37:24.994Z,51.57
2018-12-18T04:38:25.109Z,51.57
2018-12-18T04:39:25.340Z,51.57
2018-12-18T04:40:27.376Z,51.76
2018-12-18T04:41:24.973Z,51.70
2018-12-18T04:42:25.032Z,51.29
2018-12-18T04:43:25.015Z,51.76
2018-12-18T04:44:25.130Z,51.57
2018-12-18T04:45:24.992Z,51.57
2018-12-18T04:46:25.339Z,51.19
2018-12-18T04:47:24.874Z,51.96
2018-12-18T04:48:24.960Z,51.57
2018-12-18T04:49:25.087Z,51.67
2018-12-18T04:50:25.289Z,51.67
2018-12-18T04:51:24.971Z,51.67
2018-12-18T04:52:25.276Z,51.57
2018-12-18T04:53:25.343Z,51.76
2018-12-18T04:54:25.179Z,51.76
2018-12-18T04:55:25.001Z,51.29
2018-12-18T04:56:24.798Z,51.35
2018-12-18T04:57:25.218Z,51.43
2018-12-18T04:58:24.767Z,51.50
2018-12-18T04:59:25.791Z,51.88
2018-12-18T05:00:25.234Z,51.86
2018-12-18T05:01:24.965Z,51.86
2018-12-18T05:02:25.136Z,51.76
2018-12-18T05:03:24.969Z,51.95
2018-12-18T05:04:24.870Z,52.05
2018-12-18T05:05:25.176Z,51.76
2018-12-18T05:06:25.293Z,51.95
2018-12-18T05:07:25.136Z,51.28
2018-12-18T05:08:24.950Z,51.28
2018-12-18T05:09:25.019Z,51.31
2018-12-18T05:10:25.213Z,51.31
2018-12-18T05:11:25.116Z,50.92
2018-12-18T05:12:24.957Z,51.21
2018-12-18T05:13:24.765Z,51.21
2018-12-18T05:14:25.146Z,51.02
2018-12-18T05:15:24.864Z,50.73
2018-12-18T05:16:24.941Z,50.85
2018-12-18T05:17:24.810Z,50.76
2018-12-18T05:18:25.288Z,50.56
2018-12-18T05:19:24.981Z,50.76
2018-12-18T05:20:24.817Z,50.76
2018-12-18T05:21:24.989Z,50.56
2018-12-18T05:22:24.854Z,50.27
2018-12-18T05:23:24.706Z,50.40
2018-12-18T05:24:25.150Z,50.40
2018-12-18T05:25:25.085Z,50.20
2018-12-18T05:26:24.771Z,50.20
2018-12-18T05:27:24.821Z,50.10
2018-12-18T05:28:24.795Z,50.10
2018-12-18T05:29:24.800Z,50.30
2018-12-18T05:30:24.638Z,50.30
2018-12-18T05:31:24.830Z,50.20
2018-12-18T05:32:24.802Z,50.20
2018-12-18T05:33:24.743Z,50.20
2018-12-18T05:34:24.699Z,50.01
2018-12-18T05:35:24.667Z,50.49
2018-12-18T05:36:25.972Z,50.49
2018-12-18T05:37:24.781Z,50.30
2018-12-18T05:38:24.855Z,50.30
2018-12-18T05:39:24.528Z,50.30
2018-12-18T05:40:24.756Z,50.32
2018-12-18T05:41:24.700Z,50.32
2018-12-18T05:42:24.902Z,50.32
2018-12-18T05:43:24.435Z,50.23
2018-12-18T05:44:24.689Z,50.32
2018-12-18T05:45:24.423Z,50.23
2018-12-18T05:46:24.544Z,50.32
2018-12-18T05:47:24.626Z,50.32
2018-12-18T05:48:24.426Z,50.32
2018-12-18T05:49:24.331Z,50.32
2018-12-18T05:50:24.758Z,50.51
2018-12-18T05:51:24.623Z,50.51
2018-12-18T05:52:24.543Z,50.23
2018-12-18T05:53:24.609Z,50.32
2018-12-18T05:54:24.895Z,50.32
2018-12-18T05:55:24.611Z,50.32
2018-12-18T05:56:24.584Z,50.32
2018-12-18T05:57:24.327Z,50.32
2018-12-18T05:58:24.864Z,50.04
2018-12-18T05:59:24.360Z,50.13
2018-12-18T06:00:24.417Z,50.23
2018-12-18T06:01:24.966Z,50.32
2018-12-18T06:02:24.428Z,50.23
2018-12-18T06:03:24.431Z,50.71
2018-12-18T06:04:24.941Z,50.42
2018-12-18T06:05:24.372Z,50.42
2018-12-18T06:06:24.131Z,50.32
2018-12-18T06:07:24.347Z,50.42
2018-12-18T06:08:24.411Z,50.32
2018-12-18T06:09:24.103Z,50.42
2018-12-18T06:10:24.300Z,50.42
2018-12-18T06:11:24.192Z,50.23
2018-12-18T06:12:24.138Z,50.32
2018-12-18T06:13:24.100Z,50.42
2018-12-18T06:14:24.221Z,50.23
2018-12-18T06:15:24.502Z,50.13
2018-12-18T06:16:24.334Z,50.23
2018-12-18T06:17:24.600Z,50.23
2018-12-18T06:18:24.247Z,50.13
2018-12-18T06:19:25.270Z,50.13
2018-12-18T06:20:24.218Z,50.23
2018-12-18T06:21:24.167Z,50.23
2018-12-18T06:22:24.133Z,50.23
2018-12-18T06:23:24.071Z,50.23
2018-12-18T06:24:23.991Z,50.32
2018-12-18T06:25:24.044Z,50.23
2018-12-18T06:26:24.456Z,50.23
2018-12-18T06:27:24.202Z,50.23
2018-12-18T06:28:25.245Z,50.23
2018-12-18T06:29:24.016Z,50.32
2018-12-18T06:30:23.963Z,50.51
2018-12-18T06:31:24.088Z,50.42
2018-12-18T06:32:24.061Z,50.32
2018-12-18T06:33:23.952Z,50.32
2018-12-18T06:34:24.288Z,50.42
2018-12-18T06:35:24.099Z,50.42
2018-12-18T06:36:23.989Z,50.61
2018-12-18T06:37:24.749Z,50.23
2018-12-18T06:38:24.485Z,50.32
2018-12-18T06:39:23.936Z,50.81
2018-12-18T06:40:23.962Z,50.71
2018-12-18T06:41:23.826Z,50.23
2018-12-18T06:42:24.014Z,50.81
2018-12-18T06:43:24.223Z,50.61
2018-12-18T06:44:24.383Z,50.61
2018-12-18T06:45:24.100Z,50.61
2018-12-18T06:46:24.008Z,50.71
2018-12-18T06:47:23.964Z,50.61
2018-12-18T06:48:25.635Z,50.71
2018-12-18T06:49:23.861Z,50.71
2018-12-18T06:50:24.102Z,50.71
2018-12-18T06:51:24.093Z,50.71
2018-12-18T06:52:24.352Z,50.90
2018-12-18T06:53:23.876Z,50.71
2018-12-18T06:54:23.688Z,50.71
2018-12-18T06:55:23.817Z,50.81
2018-12-18T06:56:23.923Z,50.81
2018-12-18T06:57:23.915Z,50.71
2018-12-18T06:58:24.019Z,50.42
2018-12-18T06:59:23.924Z,50.51
2018-12-18T07:00:23.689Z,50.81
2018-12-18T07:01:23.717Z,50.42
2018-12-18T07:02:23.965Z,50.42
2018-12-18T07:03:24.047Z,50.51
2018-12-18T07:04:24.002Z,50.61
2018-12-18T07:05:24.053Z,50.61
2018-12-18T07:06:23.878Z,50.61
2018-12-18T07:07:23.878Z,50.71
2018-12-18T07:08:25.215Z,50.61
2018-12-18T07:09:23.684Z,50.51
2018-12-18T07:10:23.766Z,50.61
2018-12-18T07:11:23.766Z,50.32
2018-12-18T07:12:23.710Z,50.61
2018-12-18T07:13:24.238Z,50.42
2018-12-18T07:14:23.594Z,50.42
2018-12-18T07:15:23.619Z,50.42
2018-12-18T07:16:23.495Z,50.42
2018-12-18T07:17:23.567Z,50.42
2018-12-18T07:18:23.647Z,50.42
2018-12-18T07:19:25.076Z,50.61
2018-12-18T07:20:23.507Z,50.42
2018-12-18T07:21:23.467Z,50.42
2018-12-18T07:22:23.648Z,50.61
2018-12-18T07:23:23.362Z,50.71
2018-12-18T07:24:23.511Z,50.51
2018-12-18T07:25:23.839Z,50.32
2018-12-18T07:26:23.910Z,50.42
2018-12-18T07:27:23.610Z,50.42
2018-12-18T07:28:23.522Z,50.51
2018-12-18T07:29:23.598Z,50.42
2018-12-18T07:30:23.449Z,50.42
2018-12-18T07:31:23.507Z,50.51
2018-12-18T07:32:23.551Z,50.61
2018-12-18T07:33:23.462Z,50.51
2018-12-18T07:34:23.548Z,50.42
2018-12-18T07:35:23.609Z,50.81
2018-12-18T07:36:23.387Z,50.71
2018-12-18T07:37:23.597Z,50.81
2018-12-18T07:38:23.474Z,50.90
2018-12-18T07:39:23.388Z,50.61
2018-12-18T07:40:23.477Z,50.51
2018-12-18T07:41:23.382Z,50.61
2018-12-18T07:42:23.339Z,50.51
2018-12-18T07:43:23.327Z,50.61
2018-12-18T07:44:24.096Z,50.61
2018-12-18T07:45:23.308Z,50.61
2018-12-18T07:46:23.586Z,50.71
2018-12-18T07:47:23.448Z,50.51
2018-12-18T07:48:23.246Z,50.71
2018-12-18T07:49:23.110Z,50.51
2018-12-18T07:50:23.244Z,50.71
2018-12-18T07:51:23.365Z,50.51
2018-12-18T07:52:23.413Z,50.51
2018-12-18T07:53:23.318Z,50.61
2018-12-18T07:54:24.322Z,50.71
2018-12-18T07:55:23.422Z,50.61
2018-12-18T07:56:23.252Z,50.51
2018-12-18T07:57:23.189Z,50.61
2018-12-18T07:58:23.451Z,50.71
2018-12-18T07:59:23.055Z,50.71
2018-12-18T08:00:23.084Z,50.51
2018-12-18T08:01:23.619Z,50.61
2018-12-18T08:02:23.487Z,50.61
2018-12-18T08:03:23.022Z,50.71
2018-12-18T08:04:23.029Z,50.51
2018-12-18T08:05:29.672Z,50.51
2018-12-18T08:06:23.372Z,50.71
2018-12-18T08:07:23.076Z,50.61
2018-12-18T08:08:22.819Z,50.81
2018-12-18T08:09:23.149Z,50.42
2018-12-18T08:10:22.885Z,50.51
2018-12-18T08:11:23.175Z,50.71
2018-12-18T08:12:22.836Z,50.61
2018-12-18T08:13:22.937Z,50.51
2018-12-18T08:14:22.844Z,50.51
2018-12-18T08:15:23.186Z,50.51
2018-12-18T08:16:22.894Z,50.71
2018-12-18T08:17:23.379Z,50.61
2018-12-18T08:18:22.925Z,50.42
2018-12-18T08:19:22.838Z,50.81
2018-12-18T08:20:22.996Z,50.61
2018-12-18T08:21:22.989Z,50.51
2018-12-18T08:22:23.371Z,50.61
2018-12-18T08:23:22.804Z,50.51
2018-12-18T08:24:22.984Z,50.61
2018-12-18T08:25:23.099Z,50.71
2018-12-18T08:26:22.745Z,50.71
2018-12-18T08:27:23.321Z,50.51
2018-12-18T08:28:23.243Z,50.81
2018-12-18T08:29:22.788Z,50.71
2018-12-18T08:30:23.026Z,50.71
2018-12-18T08:31:22.729Z,50.81
2018-12-18T08:32:22.651Z,50.61
2018-12-18T08:33:23.025Z,50.81
2018-12-18T08:34:22.931Z,50.81
2018-12-18T08:35:22.852Z,50.71
2018-12-18T08:36:22.838Z,50.71
2018-12-18T08:37:22.654Z,50.71
2018-12-18T08:38:23.091Z,50.51
2018-12-18T08:39:23.324Z,50.71
2018-12-18T08:40:22.665Z,50.71
2018-12-18T08:41:22.678Z,50.71
2018-12-18T08:42:23.012Z,50.81
2018-12-18T08:43:22.709Z,50.71
2018-12-18T08:44:22.541Z,50.81
2018-12-18T08:45:22.985Z,50.71
2018-12-18T08:46:23.821Z,50.71
2018-12-18T08:47:22.594Z,50.61
2018-12-18T08:48:22.676Z,50.71
2018-12-18T08:49:22.939Z,50.71
2018-12-18T08:50:22.443Z,50.51
2018-12-18T08:51:22.731Z,50.61
2018-12-18T08:52:22.512Z,50.51
2018-12-18T08:53:22.473Z,50.61
2018-12-18T08:54:22.704Z,50.51
2018-12-18T08:55:22.958Z,50.51
2018-12-18T08:56:22.895Z,50.90
2018-12-18T08:57:22.463Z,50.71
2018-12-18T08:58:22.754Z,50.51
2018-12-18T08:59:22.516Z,50.51
2018-12-18T09:00:22.673Z,50.71
2018-12-18T09:01:22.441Z,50.42
2018-12-18T09:02:22.634Z,50.81
2018-12-18T09:03:22.320Z,50.61
2018-12-18T09:04:22.791Z,50.51
2018-12-18T09:05:22.224Z,50.61
2018-12-18T09:06:22.523Z,50.71
2018-12-18T09:07:22.331Z,50.51
2018-12-18T09:08:22.503Z,50.51
2018-12-18T09:09:22.545Z,50.51
2018-12-18T09:10:22.579Z,50.81
2018-12-18T09:11:22.254Z,50.71
2018-12-18T09:12:22.654Z,50.51
2018-12-18T09:13:22.558Z,50.51
2018-12-18T09:14:22.342Z,50.51
2018-12-18T09:15:22.341Z,50.61
2018-12-18T09:16:22.400Z,50.61
2018-12-18T09:17:22.224Z,50.51
2018-12-18T09:18:22.315Z,50.61
2018-12-18T09:19:22.159Z,50.71
2018-12-18T09:20:22.417Z,50.51
2018-12-18T09:22:22.364Z,50.90
2018-12-18T09:23:22.548Z,50.90
2018-12-18T09:24:22.421Z,50.81
2018-12-18T09:25:22.052Z,50.51
2018-12-18T09:26:22.211Z,50.81
2018-12-18T09:27:22.265Z,50.71
2018-12-18T09:28:22.384Z,50.61
2018-12-18T09:29:22.269Z,50.71
2018-12-18T09:30:22.350Z,50.71
2018-12-18T09:31:22.182Z,50.81
2018-12-18T09:32:21.995Z,50.81
2018-12-18T09:33:22.139Z,50.81
2018-12-18T09:34:22.256Z,50.90
2018-12-18T09:35:21.956Z,50.71
2018-12-18T09:36:22.236Z,50.81
2018-12-18T09:37:22.106Z,50.71
2018-12-18T09:38:22.087Z,50.81
2018-12-18T09:39:22.142Z,50.61
2018-12-18T09:40:22.544Z,50.51
2018-12-18T09:41:22.162Z,50.71
2018-12-18T09:42:21.963Z,50.61
2018-12-18T09:43:21.953Z,50.71
2018-12-18T09:44:22.371Z,50.61
2018-12-18T09:45:21.980Z,50.51
2018-12-18T09:46:22.057Z,50.71
2018-12-18T09:48:21.844Z,50.51
2018-12-18T09:49:22.105Z,50.51
2018-12-18T09:50:22.338Z,50.51
2018-12-18T09:51:22.072Z,50.61
2018-12-18T09:52:21.831Z,50.61
2018-12-18T09:53:22.256Z,50.61
2018-12-18T09:54:22.136Z,50.42
2018-12-18T09:55:22.154Z,50.51
2018-12-18T09:56:22.147Z,50.51
2018-12-18T09:57:22.071Z,50.71
2018-12-18T09:58:22.037Z,50.51
2018-12-18T09:59:22.168Z,50.71
2018-12-18T10:00:22.159Z,50.51
2018-12-18T10:01:22.059Z,50.71
2018-12-18T10:02:21.986Z,50.45
2018-12-18T10:03:22.308Z,50.83
2018-12-18T10:04:23.250Z,50.54
2018-12-18T10:05:22.020Z,50.51
2018-12-18T10:06:22.136Z,50.42
2018-12-18T10:07:21.950Z,50.54
2018-12-18T10:08:21.997Z,50.93
2018-12-18T10:09:22.032Z,50.51
2018-12-18T10:10:21.929Z,50.71
2018-12-18T10:11:21.852Z,50.61
2018-12-18T10:12:21.863Z,50.51
2018-12-18T10:13:21.938Z,50.90
2018-12-18T10:14:21.674Z,50.81
2018-12-18T10:15:21.927Z,50.90
2018-12-18T10:18:21.574Z,50.81
2018-12-18T10:19:21.550Z,50.81
2018-12-18T10:20:21.735Z,50.81
2018-12-18T10:21:21.709Z,50.93
2018-12-18T10:22:21.824Z,50.71
2018-12-18T10:23:22.190Z,50.83
2018-12-18T10:24:21.519Z,50.90
2018-12-18T10:25:21.650Z,50.81
2018-12-18T10:26:21.942Z,50.71
2018-12-18T10:27:21.863Z,50.81
2018-12-18T10:28:21.845Z,50.81
2018-12-18T10:29:21.692Z,50.81
2018-12-18T10:30:22.242Z,50.90
2018-12-18T10:31:21.772Z,50.81
2018-12-18T10:32:21.734Z,50.99
2018-12-18T10:33:21.428Z,50.83
2018-12-18T10:34:21.829Z,50.81
2018-12-18T10:35:22.151Z,50.90
2018-12-18T10:36:21.778Z,50.81
2018-12-18T10:37:22.181Z,50.83
2018-12-18T10:38:21.785Z,50.81
2018-12-18T10:39:21.783Z,50.81
2018-12-18T10:40:21.534Z,50.81
2018-12-18T10:41:21.279Z,50.90
2018-12-18T10:42:21.737Z,50.81
2018-12-18T10:43:21.695Z,50.83
2018-12-18T10:44:21.642Z,50.81
2018-12-18T10:45:21.478Z,50.83
2018-12-18T10:46:21.456Z,50.83
2018-12-18T10:47:21.632Z,50.81
2018-12-18T10:48:22.068Z,50.81
2018-12-18T10:49:21.573Z,50.83
2018-12-18T10:50:21.473Z,50.83
2018-12-18T10:51:21.412Z,50.81
2018-12-18T10:52:21.263Z,50.81
2018-12-18T10:53:21.935Z,50.81
2018-12-18T10:54:21.578Z,50.81
2018-12-18T10:55:21.410Z,50.90
2018-12-18T10:56:21.608Z,50.81
2018-12-18T10:57:21.698Z,50.90
2018-12-18T10:58:24.193Z,50.81
2018-12-18T10:59:21.096Z,50.90
2018-12-18T11:00:21.102Z,50.81
2018-12-18T11:01:21.386Z,50.90
2018-12-18T11:02:21.221Z,50.83
2018-12-18T11:03:21.715Z,50.81
2018-12-18T11:04:21.638Z,50.83
2018-12-18T11:05:21.267Z,50.83
2018-12-18T11:06:21.754Z,50.90
2018-12-18T11:07:21.123Z,50.81
2018-12-18T11:08:21.595Z,50.81
2018-12-18T11:09:21.310Z,50.93
2018-12-18T11:10:21.815Z,50.81
2018-12-18T11:11:21.195Z,50.99
2018-12-18T11:12:21.478Z,50.90
2018-12-18T11:13:21.515Z,50.99
2018-12-18T11:14:21.452Z,50.81
2018-12-18T11:15:21.383Z,51.12
2018-12-18T11:16:21.232Z,50.99
2018-12-18T11:17:21.305Z,50.99
2018-12-18T11:18:21.345Z,50.81
2018-12-18T11:19:21.429Z,50.93
2018-12-18T11:20:24.667Z,51.19
2018-12-18T11:21:21.038Z,50.90
2018-12-18T11:22:21.042Z,50.99
2018-12-18T11:23:21.379Z,51.09
2018-12-18T11:24:21.649Z,50.81
2018-12-18T11:25:21.314Z,50.81
2018-12-18T11:26:21.239Z,50.90
2018-12-18T11:27:21.049Z,51.21
2018-12-18T11:28:21.377Z,50.90
2018-12-18T11:29:20.936Z,51.60
2018-12-18T11:30:20.931Z,51.31
2018-12-18T11:31:21.055Z,51.57
2018-12-18T11:32:21.308Z,51.38
2018-12-18T11:33:21.069Z,51.29
2018-12-18T11:34:21.210Z,51.29
2018-12-18T11:35:20.985Z,51.19
2018-12-18T11:36:20.988Z,51.29
2018-12-18T11:37:21.074Z,51.19
2018-12-18T11:38:21.120Z,51.21
2018-12-18T11:39:21.331Z,51.60
2018-12-18T11:40:20.852Z,51.41
2018-12-18T11:41:21.131Z,51.19
2018-12-18T11:42:20.836Z,51.21
2018-12-18T11:43:20.791Z,51.19
2018-12-18T11:44:20.941Z,51.19
2018-12-18T11:45:21.580Z,51.38
2018-12-18T11:46:20.913Z,51.21
2018-12-18T11:47:21.278Z,51.19
2018-12-18T11:48:20.888Z,51.29
2018-12-18T11:49:20.819Z,51.09
2018-12-18T11:50:20.969Z,51.31
2018-12-18T11:51:21.114Z,51.19
2018-12-18T11:52:21.228Z,51.50
2018-12-18T11:53:20.815Z,51.38
2018-12-18T11:54:20.925Z,51.50
2018-12-18T11:55:20.685Z,51.48
2018-12-18T11:56:21.134Z,51.41
2018-12-18T11:57:20.876Z,51.48
2018-12-18T11:58:27.881Z,51.41
2018-12-18T11:59:20.914Z,51.29
2018-12-18T12:00:20.661Z,50.99
2018-12-18T12:01:20.705Z,51.29
2018-12-18T12:02:21.065Z,51.19
2018-12-18T12:03:21.059Z,51.21
2018-12-18T12:04:20.916Z,51.31
2018-12-18T12:05:20.500Z,50.99
2018-12-18T12:06:23.146Z,51.38
2018-12-18T12:07:20.728Z,51.09
2018-12-18T12:08:20.797Z,51.02
2018-12-18T12:09:20.744Z,51.19
2018-12-18T12:10:20.704Z,51.38
2018-12-18T12:11:21.009Z,51.19
2018-12-18T12:12:20.805Z,51.19
2018-12-18T12:13:20.413Z,51.21
2018-12-18T12:14:20.590Z,51.38
2018-12-18T12:15:20.521Z,51.19
2018-12-18T12:16:20.501Z,51.12
2018-12-18T12:17:20.750Z,51.29
2018-12-18T12:18:21.079Z,51.21
2018-12-18T12:19:20.626Z,51.19
2018-12-18T12:20:20.443Z,51.29
2018-12-18T12:21:20.522Z,51.19
2018-12-18T12:22:20.468Z,51.19
2018-12-18T12:23:20.308Z,51.21
2018-12-18T12:24:20.915Z,51.02
2018-12-18T12:25:20.411Z,51.38
2018-12-18T12:26:20.425Z,51.29
2018-12-18T12:27:20.347Z,51.21
2018-12-18T12:28:20.431Z,51.31
2018-12-18T12:29:21.589Z,50.90
2018-12-18T12:30:20.319Z,50.99
2018-12-18T12:31:20.522Z,51.19
2018-12-18T12:32:20.319Z,51.12
2018-12-18T12:33:20.445Z,51.31
2018-12-18T12:34:21.022Z,51.12
2018-12-18T12:35:20.362Z,51.09
2018-12-18T12:36:20.246Z,51.09
2018-12-18T12:37:20.275Z,51.09
2018-12-18T12:38:20.440Z,50.99
2018-12-18T12:39:20.345Z,51.09
2018-12-18T12:40:20.229Z,51.09
2018-12-18T12:41:20.431Z,51.19
2018-12-18T12:42:20.569Z,50.99
2018-12-18T12:43:20.255Z,50.71
2018-12-18T12:44:21.001Z,50.99
2018-12-18T12:45:20.167Z,51.02
2018-12-18T12:46:20.511Z,50.73
2018-12-18T12:47:20.514Z,51.29
2018-12-18T12:48:20.120Z,50.81
2018-12-18T12:49:20.784Z,50.81
2018-12-18T12:50:20.747Z,51.38
2018-12-18T12:51:20.185Z,50.99
2018-12-18T12:52:20.230Z,50.71
2018-12-18T12:53:20.604Z,51.38
2018-12-18T12:54:20.525Z,51.41
2018-12-18T12:55:20.194Z,51.48
2018-12-18T12:56:20.204Z,51.29